Abbeville Chris Crusta Memorial Information

FAA: IYA - ICAO: KIYA

Abbeville Chris Crusta Memorial (Airport) Location

State Louisiana
County Vermilion
City Abbeville
Abbeville Chris Crusta Memorial (Airport) is 3 miles east of Abbeville, LA.
Latitude 29-58-32.8000N
Longitude 092-05-03.2000W
Elevation 15ft

Abbeville Chris Crusta Memorial METARs

METAR KIYA 170415Z AUTO 22003KT 10SM CLR 25/22 A2997 RMK AO2 T02500215
Altimeter 29.97"
Temperature 25.0°C (77.0°F)
Wind 220° at 3KT
Clouds Skies are clear.
Visibility 10.0mi
Time observed: 2022-05-17T04:15:00Z

Abbeville Chris Crusta Memorial (Airport) Details

Status Operational
Activation April 1948
Ownership Public
Usage Public
Chart HOUSTON
ATC on-site No
Beacon schedule sunset-sunrise
Beacon color clear green

Abbeville Chris Crusta Memorial (Airport) Contacts

Owner CITY OF ABBEVILLE
Owner address BOX 1170, ABBEVILLE, LA 70510
Owner phone 337-893-5841
Manager DEREK SHACKLEFORD, FACILITY MGR
Manager address 240 HOSPITAL ROAD, WHITESBURG, KY 41858
Manager phone (606) 633-3500

Abbeville Chris Crusta Memorial Radio Frequencies

Abbeville Chris Crusta Memorial (Airport) Radio Frequencies

UNICOM 122.8
Common traffic advisory frequency (CTAF) 122.8